Česky Dansk Deutsch English Español Suomi Français Magyar Italiano Nederlands norsk Polski Português svenska Türkçe

 

Het Weer

Mikkeli (Finland)

03:20, 22 augustus 2016 (GMT)

NWNNE
WE
SWSSE
Home            
Mikkeli Varkaus Lappeenranta Savonlinna Utti Jyvaskyla Halli Kuopio Joensuu Viitasaari Ahtari Tampere / Pirkkala Helsinki-Vantaa Helsinki-Malmi St. Peterburg Seinajoki-Ilmajok Ilmajoki Kauhava Kajaani Pori Tallinn Turku Kruunupyy

Om een weerknop op uw website of weblog te plaatsen, copieer onderstaande code en plak die in uw pagina. In het eerste vakje staat HTML-code, in het tweede vakje UBB-code.


Add to Google

Details

Wind speed:2 bf, 4 kn, 2.1 m/s, 4.6 miles/h, 7.4 km/h
Wind direction:E, 100°
Visibility:Greater than 10000 m, 10 km, 32800 ft, 6.2 miles
Clouds:CAVOC
Temperature:16°C, 61°F
Dew-point:14°C, 57°F
Atmospheric pressure:1019 hPa, 764.3 mmHg, 30.09 inHg, 1.006 atm
Relative humidity:87.9 %
METAR:EFMI 220320Z AUTO 10004KT CAVOK 16/14 Q1019

Snelkoppelingen

Actuele weersinformatie van de hele wereld. Voeg locaties toe met het plus (+) symbool. Deze snelkoppelingen kunnen worden toegevoegd aan Google.

Lid van de Technetium groep

website free tracking
StatCounter NetStat W3C Validator

06-12-2019 10:24:11
astro.technetium.be money.technetium.be phote.technetium.be tafeltennistafel.technetium.be www.ligfiets.net